Time;durP1;ratioP1;P1;durP2;ratioP2;P2;SDS_P1;SDS_P2;PMS_P1;PMS_P2;Temp;Humidity;BMP_temperature;BMP_pressure;BME280_temperature;BME280_humidity;BME280_pressure;Samples;Min_cycle;Max_cycle;Signal;HPM_P1;HPM_P2
2023/06/19 00:01:42;;;;;;;7.55;4.28;;;;;;;24.22;73.58;99715.47;5030060;28;20052;-68
2023/06/19 00:04:08;;;;;;;8.38;4.28;;;;;;;23.70;80.30;99733.00;5037323;28;20032;-68
2023/06/19 00:06:34;;;;;;;9.45;4.20;;;;;;;23.18;85.01;99734.06;5044602;28;20115;-72
2023/06/19 00:08:59;;;;;;;8.45;4.30;;;;;;;22.96;87.04;99739.69;5034556;28;20190;-69
2023/06/19 00:11:25;;;;;;;7.72;4.50;;;;;;;22.85;88.41;99745.16;5028910;28;20021;-68
2023/06/19 00:13:50;;;;;;;7.15;4.53;;;;;;;22.64;89.72;99748.88;5031401;28;20036;-69
2023/06/19 00:16:16;;;;;;;7.97;4.40;;;;;;;22.61;90.99;99752.72;5043837;28;20139;-68
2023/06/19 00:18:41;;;;;;;6.28;3.97;;;;;;;22.50;92.14;99749.19;5031803;28;20473;-68
2023/06/19 00:21:08;;;;;;;10.15;3.92;;;;;;;22.44;92.37;99755.13;5044656;28;20920;-67
2023/06/19 00:23:34;;;;;;;5.63;3.40;;;;;;;22.43;93.11;99759.69;5044633;28;20036;-65
2023/06/19 00:26:03;;;;;;;5.45;3.22;;;;;;;22.42;92.82;99779.63;5044804;28;20079;-63
2023/06/19 00:28:31;;;;;;;6.05;3.00;;;;;;;22.22;92.02;99785.91;5036859;28;20029;-62
2023/06/19 00:30:56;;;;;;;5.93;2.72;;;;;;;22.32;92.52;99791.41;5029517;28;20087;-61
2023/06/19 00:33:22;;;;;;;5.68;2.67;;;;;;;22.33;93.11;99791.28;5033115;28;20478;-61
2023/06/19 00:35:50;;;;;;;3.53;1.85;;;;;;;22.29;92.78;99784.38;5029020;28;20030;-62
2023/06/19 00:38:16;;;;;;;3.55;1.98;;;;;;;22.24;93.15;99791.19;5033903;28;20107;-61
2023/06/19 00:40:41;;;;;;;3.72;1.70;;;;;;;22.09;93.65;99799.59;5028390;28;20031;-62
2023/06/19 00:43:06;;;;;;;4.03;1.65;;;;;;;22.05;93.82;99798.16;5039330;28;20040;-62
2023/06/19 00:45:32;;;;;;;5.20;2.08;;;;;;;22.07;92.63;99816.97;5046658;28;20021;-61
2023/06/19 00:48:00;;;;;;;4.25;1.73;;;;;;;22.17;92.96;99818.78;5048184;28;20564;-62
2023/06/19 00:50:30;;;;;;;3.38;1.70;;;;;;;22.24;92.87;99827.25;5048148;28;20040;-61
2023/06/19 00:52:55;;;;;;;5.80;2.17;;;;;;;22.25;93.47;99834.41;5049457;28;20710;-61
2023/06/19 00:55:21;;;;;;;5.20;2.30;;;;;;;22.18;93.63;99830.50;5050317;28;20124;-62
2023/06/19 00:57:49;;;;;;;3.60;1.90;;;;;;;22.15;95.10;99809.06;5044760;28;20078;-62
2023/06/19 01:00:36;;;;;;;5.93;1.83;;;;;;;22.09;95.80;99806.88;5041562;28;20033;-62
2023/06/19 01:03:02;;;;;;;5.90;2.35;;;;;;;21.94;97.94;99805.44;5040560;28;20056;-62
2023/06/19 01:05:27;;;;;;;3.65;1.90;;;;;;;21.94;98.56;99805.44;5052056;28;20025;-62
2023/06/19 01:08:14;;;;;;;5.18;2.63;;;;;;;21.80;99.85;99797.56;5037985;28;20131;-65
2023/06/19 01:10:45;;;;;;;4.82;2.45;;;;;;;21.66;100.00;99784.28;5028307;28;20044;-63
2023/06/19 01:13:19;;;;;;;6.25;2.40;;;;;;;21.68;100.00;99782.31;5042117;28;20527;-62
2023/06/19 01:15:46;;;;;;;5.80;2.40;;;;;;;21.48;100.00;99747.88;5035004;28;20018;-63
2023/06/19 01:18:12;;;;;;;6.00;2.80;;;;;;;21.41;100.00;99746.66;5035634;28;20025;-64
2023/06/19 01:20:38;;;;;;;6.82;3.22;;;;;;;21.48;100.00;99758.72;5041609;28;20419;-65
2023/06/19 01:23:08;;;;;;;7.10;3.33;;;;;;;21.54;100.00;99748.25;5050119;28;20112;-65
2023/06/19 01:25:34;;;;;;;6.20;3.40;;;;;;;21.56;100.00;99735.44;5050667;28;20063;-67
2023/06/19 01:27:59;;;;;;;6.13;3.42;;;;;;;21.58;100.00;99738.03;5049890;28;20057;-67
2023/06/19 01:30:25;;;;;;;5.88;3.90;;;;;;;21.56;100.00;99723.75;5050557;28;20104;-68
2023/06/19 01:33:03;;;;;;;5.88;3.80;;;;;;;21.34;100.00;99731.88;5049700;28;20033;-68
2023/06/19 01:35:34;;;;;;;5.82;3.75;;;;;;;21.49;100.00;99720.69;5050703;28;20066;-69
2023/06/19 01:38:01;;;;;;;9.63;4.82;;;;;;;21.42;100.00;99732.13;5050496;28;20055;-69
2023/06/19 01:40:31;;;;;;;6.13;3.80;;;;;;;21.58;100.00;99740.75;5031169;28;20028;-69
2023/06/19 01:43:00;;;;;;;6.28;3.95;;;;;;;21.64;100.00;99748.34;5050269;28;20050;-69
2023/06/19 01:45:30;;;;;;;7.82;4.20;;;;;;;21.50;100.00;99754.88;5030763;28;20022;-68
2023/06/19 01:47:55;;;;;;;7.10;4.35;;;;;;;21.43;100.00;99752.81;5034508;28;20039;-67
2023/06/19 01:50:22;;;;;;;7.30;4.18;;;;;;;21.48;100.00;99764.13;5030721;28;20644;-68
2023/06/19 01:52:47;;;;;;;7.55;4.53;;;;;;;21.52;100.00;99749.34;5030712;28;20143;-67
2023/06/19 01:55:14;;;;;;;7.00;4.90;;;;;;;21.57;100.00;99752.53;5012318;28;20537;-68
2023/06/19 01:57:39;;;;;;;7.13;4.68;;;;;;;21.59;100.00;99745.16;5038518;28;20036;-68
2023/06/19 02:00:07;;;;;;;6.53;4.25;;;;;;;21.58;100.00;99748.84;5048773;28;20027;-68
2023/06/19 02:02:33;;;;;;;8.68;5.40;;;;;;;21.63;100.00;99752.06;5047757;28;20037;-68
2023/06/19 02:04:58;;;;;;;8.85;5.20;;;;;;;21.73;100.00;99759.28;5039901;28;20037;-68
2023/06/19 02:07:25;;;;;;;8.07;4.97;;;;;;;21.73;100.00;99763.84;5029092;28;20053;-68
2023/06/19 02:09:50;;;;;;;8.57;5.53;;;;;;;21.67;100.00;99757.06;5042346;28;20048;-68
2023/06/19 02:12:16;;;;;;;11.13;6.38;;;;;;;21.63;100.00;99763.72;5049319;28;20404;-69
2023/06/19 02:14:41;;;;;;;13.15;6.50;;;;;;;21.61;100.00;99763.00;5048783;28;20017;-68
2023/06/19 02:17:07;;;;;;;9.65;5.80;;;;;;;21.55;100.00;99754.50;5049246;28;20083;-68
2023/06/19 02:19:32;;;;;;;9.20;5.50;;;;;;;21.56;100.00;99750.81;5047598;28;20626;-67
2023/06/19 02:21:58;;;;;;;8.98;6.15;;;;;;;21.46;100.00;99752.56;5048686;28;20036;-68
2023/06/19 02:24:23;;;;;;;9.35;5.22;;;;;;;21.37;100.00;99740.63;5022545;28;20044;-68
2023/06/19 02:26:50;;;;;;;9.05;5.55;;;;;;;21.35;100.00;99749.88;5028560;28;20037;-68
2023/06/19 02:29:15;;;;;;;9.45;5.45;;;;;;;21.30;100.00;99750.22;5029264;28;20036;-68
2023/06/19 02:31:42;;;;;;;9.98;5.45;;;;;;;21.21;100.00;99761.78;5034976;28;20022;-67
2023/06/19 02:34:08;;;;;;;9.20;5.22;;;;;;;21.20;100.00;99765.50;5028703;28;20401;-67
2023/06/19 02:36:35;;;;;;;7.80;5.07;;;;;;;21.29;100.00;99771.97;5041287;28;20840;-67
2023/06/19 02:39:01;;;;;;;7.85;4.88;;;;;;;21.32;100.00;99771.72;5049342;28;20031;-66
2023/06/19 02:41:27;;;;;;;9.25;5.75;;;;;;;21.37;100.00;99772.22;5038995;28;20080;-67
2023/06/19 02:43:52;;;;;;;8.95;5.15;;;;;;;21.35;100.00;99771.50;5030852;28;20433;-67
2023/06/19 02:46:18;;;;;;;8.95;5.70;;;;;;;21.37;100.00;99767.69;5049386;28;20072;-68
2023/06/19 02:48:43;;;;;;;8.13;4.35;;;;;;;21.39;100.00;99776.53;5049351;28;20576;-67
2023/06/19 02:51:08;;;;;;;7.50;4.53;;;;;;;21.38;100.00;99776.66;5047983;28;20032;-68
2023/06/19 02:53:34;;;;;;;9.32;4.97;;;;;;;21.41;100.00;99774.59;5049400;28;20036;-67
2023/06/19 02:55:59;;;;;;;7.30;4.07;;;;;;;21.47;100.00;99765.09;5049050;28;20040;-67
2023/06/19 02:58:26;;;;;;;8.15;4.07;;;;;;;21.49;100.00;99772.13;5049292;28;20458;-67
2023/06/19 03:00:52;;;;;;;10.15;4.90;;;;;;;21.54;100.00;99782.56;5048128;28;20078;-67
2023/06/19 03:03:17;;;;;;;6.47;3.90;;;;;;;21.54;100.00;99783.44;5047899;28;20033;-67
2023/06/19 03:05:43;;;;;;;6.97;4.22;;;;;;;21.53;100.00;99770.03;5048054;28;20508;-68
2023/06/19 03:08:08;;;;;;;7.18;4.30;;;;;;;21.51;100.00;99772.00;5048517;28;20036;-67
2023/06/19 03:10:34;;;;;;;6.50;3.95;;;;;;;21.47;100.00;99775.91;5035509;28;20033;-67
2023/06/19 03:12:59;;;;;;;6.63;4.05;;;;;;;21.45;100.00;99769.78;5043328;28;20013;-68
2023/06/19 03:15:25;;;;;;;7.90;4.10;;;;;;;21.46;100.00;99779.63;5048595;28;20036;-67
2023/06/19 03:17:52;;;;;;;7.38;3.40;;;;;;;21.43;100.00;99779.88;5048806;28;20400;-67
2023/06/19 03:20:18;;;;;;;8.88;3.70;;;;;;;21.39;100.00;99787.38;5048546;28;20017;-67
2023/06/19 03:22:43;;;;;;;8.27;3.58;;;;;;;21.32;100.00;99780.72;5047738;28;20082;-67
2023/06/19 03:25:09;;;;;;;7.50;3.70;;;;;;;21.35;100.00;99783.19;5026999;28;20035;-67
2023/06/19 03:27:34;;;;;;;5.90;3.40;;;;;;;21.36;100.00;99784.91;5040037;28;20040;-68
2023/06/19 03:30:00;;;;;;;5.97;2.63;;;;;;;21.36;100.00;99784.03;5046165;28;20758;-68
2023/06/19 03:32:26;;;;;;;5.28;2.92;;;;;;;21.36;100.00;99784.03;5032027;28;20032;-67
2023/06/19 03:34:51;;;;;;;7.50;3.20;;;;;;;21.36;100.00;99775.94;5043240;28;20043;-67
2023/06/19 03:37:17;;;;;;;6.03;3.30;;;;;;;21.39;100.00;99781.09;5026035;28;20029;-67
2023/06/19 03:39:42;;;;;;;5.88;3.25;;;;;;;21.40;100.00;99783.66;5038068;28;20028;-68
2023/06/19 03:42:08;;;;;;;7.05;3.47;;;;;;;21.43;100.00;99788.00;5044370;28;20079;-67
2023/06/19 03:44:34;;;;;;;6.45;3.33;;;;;;;21.41;100.00;99779.13;5040047;28;20130;-67
2023/06/19 03:46:59;;;;;;;17.92;3.83;;;;;;;21.48;100.00;99777.66;5047864;28;20047;-68
2023/06/19 03:49:25;;;;;;;8.68;3.47;;;;;;;21.54;100.00;99774.44;5048029;28;20742;-68
2023/06/19 03:51:51;;;;;;;5.93;2.88;;;;;;;21.49;100.00;99787.47;5047721;28;20365;-66
2023/06/19 03:54:16;;;;;;;10.52;3.50;;;;;;;21.54;100.00;99796.97;5046624;28;20064;-67
2023/06/19 03:56:42;;;;;;;5.10;2.63;;;;;;;21.59;99.98;99796.59;5039494;28;20111;-68
2023/06/19 03:59:07;;;;;;;7.53;3.03;;;;;;;21.63;99.96;99811.59;5028163;28;20473;-67
2023/06/19 04:01:32;;;;;;;5.70;3.05;;;;;;;21.62;99.78;99812.56;5043521;28;20053;-67
2023/06/19 04:03:59;;;;;;;7.88;3.72;;;;;;;21.66;99.47;99824.88;5047088;28;20033;-68
2023/06/19 04:06:24;;;;;;;6.32;3.10;;;;;;;21.66;99.28;99824.88;5030103;28;20112;-68
2023/06/19 04:08:49;;;;;;;5.72;2.92;;;;;;;21.69;99.55;99811.97;5041619;28;20074;-68
2023/06/19 04:11:15;;;;;;;5.32;2.83;;;;;;;21.67;99.31;99813.06;5039866;28;20153;-67
2023/06/19 04:13:40;;;;;;;7.28;2.90;;;;;;;21.56;99.99;99794.13;5033890;28;20032;-67
2023/06/19 04:16:06;;;;;;;6.13;3.40;;;;;;;21.65;99.70;99807.78;5047263;28;20017;-67
2023/06/19 04:18:31;;;;;;;6.93;3.40;;;;;;;21.53;99.55;99805.22;5015907;28;20048;-67
2023/06/19 04:20:56;;;;;;;7.32;3.17;;;;;;;21.62;99.21;99809.88;5036910;28;20487;-67
2023/06/19 04:23:22;;;;;;;6.55;3.35;;;;;;;21.70;99.46;99807.38;5047046;28;20046;-66
2023/06/19 04:25:47;;;;;;;10.82;3.15;;;;;;;21.78;99.68;99799.53;5047574;28;20094;-68
2023/06/19 04:28:13;;;;;;;11.68;3.08;;;;;;;21.82;98.77;99799.19;5039735;28;20390;-66
2023/06/19 04:30:41;;;;;;;11.93;3.25;;;;;;;21.84;98.71;99812.59;5031085;28;20148;-67
2023/06/19 04:33:08;;;;;;;7.13;3.20;;;;;;;21.84;98.47;99815.31;5033694;28;20561;-67
2023/06/19 04:35:39;;;;;;;6.80;2.70;;;;;;;21.83;97.95;99797.31;5027766;28;20029;-67
2023/06/19 04:38:05;;;;;;;7.65;3.10;;;;;;;21.96;97.96;99798.03;5043611;28;20798;-67
2023/06/19 04:40:30;;;;;;;6.13;3.20;;;;;;;22.00;97.20;99799.50;5046902;28;20046;-67
2023/06/19 04:42:56;;;;;;;6.20;3.10;;;;;;;22.01;97.18;99798.50;5043713;28;20033;-67
2023/06/19 04:45:21;;;;;;;5.88;3.22;;;;;;;22.05;97.23;99798.16;5046326;28;20105;-67
2023/06/19 04:47:47;;;;;;;5.68;3.42;;;;;;;22.11;96.87;99796.75;5044944;28;20036;-67
2023/06/19 04:50:12;;;;;;;6.50;3.28;;;;;;;22.11;96.30;99796.75;5045777;28;20484;-67
2023/06/19 04:52:38;;;;;;;5.32;2.95;;;;;;;22.15;96.63;99795.53;5034868;28;20024;-67
2023/06/19 04:55:09;;;;;;;6.47;3.03;;;;;;;22.19;96.83;99789.72;5032150;28;20487;-67
2023/06/19 04:57:35;;;;;;;6.93;3.17;;;;;;;22.18;96.75;99782.59;5027707;28;20037;-67
2023/06/19 05:00:00;;;;;;;6.18;3.00;;;;;;;22.20;97.21;99779.75;5043477;28;20033;-66
2023/06/19 05:02:26;;;;;;;4.90;3.00;;;;;;;22.15;96.75;99782.84;5046181;28;20064;-67
2023/06/19 05:04:51;;;;;;;5.90;3.22;;;;;;;22.20;97.05;99774.31;5032920;28;20037;-67
2023/06/19 05:07:17;;;;;;;6.45;3.20;;;;;;;22.27;96.60;99783.66;5039117;28;20552;-67
2023/06/19 05:09:43;;;;;;;6.07;3.38;;;;;;;22.34;96.60;99790.28;5047335;28;20033;-68
2023/06/19 05:12:10;;;;;;;5.18;3.05;;;;;;;22.40;95.16;99791.63;5029681;28;20026;-67
2023/06/19 05:14:35;;;;;;;4.60;2.60;;;;;;;22.46;94.48;99789.25;5040045;28;20359;-67
2023/06/19 05:17:01;;;;;;;5.32;2.88;;;;;;;22.50;94.77;99798.84;5020743;28;20036;-67
2023/06/19 05:19:26;;;;;;;5.35;3.00;;;;;;;22.48;94.30;99799.94;5023864;28;20197;-67
2023/06/19 05:21:51;;;;;;;5.90;2.83;;;;;;;22.62;94.69;99794.28;5029981;28;20033;-67
2023/06/19 05:24:17;;;;;;;5.63;3.40;;;;;;;22.67;94.07;99811.84;5033136;28;20037;-67
2023/06/19 05:26:42;;;;;;;7.60;3.78;;;;;;;22.74;94.25;99810.34;5018322;28;20029;-67
2023/06/19 05:29:08;;;;;;;6.13;2.70;;;;;;;22.84;94.31;99803.13;5046813;28;20083;-67
2023/06/19 05:31:34;;;;;;;7.47;3.28;;;;;;;23.02;93.98;99812.38;5042570;28;20025;-68
2023/06/19 05:33:59;;;;;;;6.10;3.10;;;;;;;23.12;93.60;99812.44;5036714;28;20039;-67
2023/06/19 05:36:25;;;;;;;5.40;3.03;;;;;;;23.24;93.64;99804.06;5037144;28;20017;-67
2023/06/19 05:38:50;;;;;;;5.32;3.05;;;;;;;23.38;93.48;99803.78;5046913;28;20419;-67
2023/06/19 05:41:16;;;;;;;5.97;3.22;;;;;;;23.55;92.74;99806.84;5049981;28;20029;-68
2023/06/19 05:43:41;;;;;;;6.93;3.30;;;;;;;23.69;91.75;99804.59;5049799;28;20104;-68
2023/06/19 05:46:06;;;;;;;6.55;3.60;;;;;;;23.67;92.28;99808.47;5049631;28;20039;-67
2023/06/19 05:48:32;;;;;;;6.45;3.47;;;;;;;23.76;91.13;99813.06;5050315;28;20036;-67
2023/06/19 05:50:57;;;;;;;7.72;3.03;;;;;;;23.82;88.83;99812.53;5044735;28;20401;-68
2023/06/19 05:53:23;;;;;;;10.20;4.10;;;;;;;23.85;87.39;99818.53;5049658;28;20495;-68
2023/06/19 05:55:48;;;;;;;6.45;3.85;;;;;;;23.96;87.91;99818.44;5050014;28;20458;-67
2023/06/19 05:58:13;;;;;;;7.38;3.05;;;;;;;24.10;87.68;99823.47;5050239;28;20023;-68
2023/06/19 06:00:39;;;;;;;5.82;3.10;;;;;;;24.15;87.28;99831.25;5049421;28;20037;-68
2023/06/19 06:03:05;;;;;;;5.68;3.17;;;;;;;24.11;86.91;99821.63;5050024;28;20060;-68
2023/06/19 06:05:30;;;;;;;6.30;3.10;;;;;;;24.14;88.56;99824.06;5049549;28;20029;-68
2023/06/19 06:07:56;;;;;;;6.05;3.28;;;;;;;24.12;85.89;99824.22;5049871;28;20669;-67
2023/06/19 06:10:22;;;;;;;6.18;3.08;;;;;;;24.26;85.18;99823.81;5049801;28;20025;-68
2023/06/19 06:12:48;;;;;;;6.28;3.30;;;;;;;24.33;83.74;99824.94;5049064;28;20539;-67
2023/06/19 06:15:14;;;;;;;6.20;3.30;;;;;;;24.32;84.40;99839.56;5047989;28;20033;-67
2023/06/19 06:17:39;;;;;;;4.25;2.38;;;;;;;24.29;83.16;99836.25;5033688;28;20032;-67
2023/06/19 06:20:12;;;;;;;4.72;2.55;;;;;;;24.21;83.74;99830.66;5048995;28;20036;-67
2023/06/19 06:22:39;;;;;;;6.78;2.95;;;;;;;24.24;84.16;99836.69;5048819;28;20031;-67
2023/06/19 06:25:05;;;;;;;5.05;2.67;;;;;;;24.34;84.13;99836.69;5048790;28;20036;-67
2023/06/19 06:27:30;;;;;;;5.53;2.80;;;;;;;24.43;83.02;99846.75;5049833;28;20046;-67
2023/06/19 06:29:55;;;;;;;6.13;3.30;;;;;;;24.61;82.32;99847.75;5049522;28;20027;-67
2023/06/19 06:32:21;;;;;;;5.68;3.25;;;;;;;24.86;82.92;99855.34;5047956;28;20095;-67
2023/06/19 06:34:47;;;;;;;5.35;2.90;;;;;;;24.84;80.29;99860.13;5049200;28;20496;-67
2023/06/19 06:37:12;;;;;;;5.25;3.00;;;;;;;24.88;80.88;99858.81;5049247;28;20109;-67
2023/06/19 06:39:38;;;;;;;6.00;3.28;;;;;;;24.80;79.82;99872.28;5045965;28;20028;-66
2023/06/19 06:42:04;;;;;;;9.68;3.10;;;;;;;24.84;80.26;99867.41;5032010;28;20029;-66
2023/06/19 06:44:29;;;;;;;4.28;2.60;;;;;;;24.89;79.47;99876.88;5042340;28;20029;-66
2023/06/19 06:46:55;;;;;;;5.30;2.85;;;;;;;25.12;78.83;99875.56;5033154;28;20469;-66
2023/06/19 06:49:21;;;;;;;5.82;2.83;;;;;;;25.21;77.73;99880.13;5038695;28;20021;-66
2023/06/19 06:51:47;;;;;;;4.65;2.88;;;;;;;25.25;75.94;99881.56;5045570;28;20036;-64
2023/06/19 06:54:12;;;;;;;5.47;3.00;;;;;;;25.16;75.45;99884.28;5043122;28;20025;-65
2023/06/19 06:56:38;;;;;;;6.47;3.22;;;;;;;25.28;76.65;99886.72;5029147;28;20548;-65
2023/06/19 06:59:03;;;;;;;5.60;3.53;;;;;;;25.44;75.58;99895.16;5030249;28;20112;-62
2023/06/19 07:01:29;;;;;;;4.78;2.70;;;;;;;25.43;74.46;99888.00;5028889;28;20514;-64
2023/06/19 07:03:54;;;;;;;5.20;2.90;;;;;;;25.53;74.02;99905.19;5042710;28;20141;-65
2023/06/19 07:06:19;;;;;;;5.30;2.63;;;;;;;25.58;74.74;99907.47;5048715;28;20556;-64
2023/06/19 07:08:47;;;;;;;5.10;3.30;;;;;;;25.56;74.45;99910.34;5048231;28;20024;-63
2023/06/19 07:11:13;;;;;;;5.50;3.28;;;;;;;25.68;74.26;99913.75;5048427;28;20492;-64
2023/06/19 07:13:39;;;;;;;5.45;3.05;;;;;;;25.88;72.38;99904.50;5047765;28;20040;-64
2023/06/19 07:16:05;;;;;;;4.68;2.53;;;;;;;26.11;72.31;99910.47;5048484;28;20353;-65
2023/06/19 07:18:30;;;;;;;5.40;2.80;;;;;;;26.40;72.20;99916.63;5043505;28;21004;-65
2023/06/19 07:20:56;;;;;;;5.40;2.85;;;;;;;26.54;70.54;99913.38;5028479;28;20047;-65
2023/06/19 07:23:21;;;;;;;6.13;2.95;;;;;;;27.03;69.24;99915.63;5028007;28;20021;-64
2023/06/19 07:25:47;;;;;;;6.72;3.30;;;;;;;27.25;66.91;99922.50;5028278;28;20040;-64
2023/06/19 07:28:13;;;;;;;6.97;3.03;;;;;;;27.46;67.08;99915.69;5040661;28;20055;-64
2023/06/19 07:30:39;;;;;;;5.25;3.10;;;;;;;27.71;66.11;99917.56;5029048;28;20033;-66
2023/06/19 07:33:04;;;;;;;9.75;2.80;;;;;;;27.96;66.00;99910.41;5048338;28;20126;-67
2023/06/19 07:35:30;;;;;;;8.75;2.95;;;;;;;28.33;64.76;99917.28;5033759;28;20029;-63
2023/06/19 07:37:55;;;;;;;4.85;2.72;;;;;;;28.61;62.69;99919.78;5045607;28;20112;-63
2023/06/19 07:40:21;;;;;;;8.13;3.03;;;;;;;28.74;63.10;99922.88;5045156;28;20113;-61
2023/06/19 07:42:46;;;;;;;6.10;2.50;;;;;;;28.68;62.03;99926.31;5046713;28;20025;-62
2023/06/19 07:45:13;;;;;;;4.50;2.90;;;;;;;28.55;63.98;99923.19;5047751;28;20036;-62
2023/06/19 07:47:38;;;;;;;7.95;3.30;;;;;;;28.39;63.58;99913.84;5046851;28;20111;-63
2023/06/19 07:50:04;;;;;;;5.70;2.88;;;;;;;28.47;63.49;99914.91;5047697;28;20028;-65
2023/06/19 07:52:29;;;;;;;4.80;2.70;;;;;;;28.44;61.55;99922.44;5047633;28;20044;-63
2023/06/19 07:54:56;;;;;;;7.38;4.20;;;;;;;28.43;63.74;99915.22;5039662;28;20041;-64
2023/06/19 07:57:23;;;;;;;7.13;2.78;;;;;;;28.66;65.25;99921.00;5035314;28;20233;-64
2023/06/19 07:59:49;;;;;;;4.78;2.85;;;;;;;28.81;62.98;99913.84;5047501;28;20756;-64
2023/06/19 08:02:15;;;;;;;6.25;3.22;;;;;;;28.92;61.70;99907.19;5045289;28;20394;-64
2023/06/19 08:04:41;;;;;;;4.45;2.97;;;;;;;29.25;61.94;99919.91;5047257;28;20107;-64
2023/06/19 08:07:06;;;;;;;5.63;2.75;;;;;;;29.45;61.02;99910.31;5028877;28;20036;-63
2023/06/19 08:09:32;;;;;;;5.40;3.22;;;;;;;29.36;61.31;99881.19;5045914;28;20033;-63
2023/06/19 08:11:57;;;;;;;5.63;3.40;;;;;;;29.80;60.59;99917.34;5046866;28;20029;-63
2023/06/19 08:14:23;;;;;;;5.78;2.50;;;;;;;29.88;57.68;99901.72;5046217;28;20083;-66
2023/06/19 08:16:48;;;;;;;4.43;2.40;;;;;;;30.05;58.48;99916.25;5047227;28;20036;-66
2023/06/19 08:19:14;;;;;;;4.68;2.80;;;;;;;30.43;58.24;99919.03;5046740;28;20028;-66
2023/06/19 08:21:39;;;;;;;5.32;2.85;;;;;;;30.33;53.53;99915.66;5046723;28;20128;-66
2023/06/19 08:24:05;;;;;;;5.30;2.78;;;;;;;30.68;55.95;99917.88;5046230;28;20020;-65
2023/06/19 08:26:30;;;;;;;4.55;2.63;;;;;;;30.75;55.31;99910.63;5029471;28;20060;-65
2023/06/19 08:28:55;;;;;;;4.88;2.75;;;;;;;30.86;55.70;99921.22;5030461;28;20086;-65
2023/06/19 08:31:26;;;;;;;7.47;2.80;;;;;;;30.70;54.24;99913.06;5046302;28;20032;-64
2023/06/19 08:33:53;;;;;;;5.50;3.38;;;;;;;30.72;56.12;99915.63;5039169;28;20029;-62
2023/06/19 08:36:18;;;;;;;5.78;2.80;;;;;;;30.73;56.10;99923.69;5042991;28;20033;-61
2023/06/19 08:38:44;;;;;;;4.50;2.90;;;;;;;31.18;53.78;99913.78;5026734;28;20029;-62
2023/06/19 08:41:09;;;;;;;7.80;3.72;;;;;;;31.64;51.21;99915.47;5035118;28;20037;-62
2023/06/19 08:43:35;;;;;;;5.00;3.05;;;;;;;32.05;52.02;99916.81;5039493;28;20124;-62
2023/06/19 08:46:14;;;;;;;5.88;3.17;;;;;;;32.48;50.91;99917.84;5046737;28;20807;-62
2023/06/19 08:48:40;;;;;;;7.55;3.75;;;;;;;32.84;47.95;99915.97;5045987;28;20503;-62
2023/06/19 08:51:05;;;;;;;5.05;2.70;;;;;;;33.28;47.45;99914.78;5045992;28;20102;-63
2023/06/19 08:53:36;;;;;;;5.53;3.25;;;;;;;33.56;47.08;99914.03;5037684;28;20029;-62
2023/06/19 08:56:04;;;;;;;5.82;3.22;;;;;;;33.80;46.93;99917.19;5037830;28;20025;-63
2023/06/19 08:58:29;;;;;;;4.50;3.15;;;;;;;33.66;45.40;99920.06;5027803;28;20377;-62
2023/06/19 09:00:58;;;;;;;8.15;3.40;;;;;;;33.38;46.39;99924.66;5028166;28;20040;-63
2023/06/19 09:03:24;;;;;;;6.45;3.30;;;;;;;32.92;47.31;99911.22;5040939;28;20508;-63
2023/06/19 09:05:50;;;;;;;6.28;2.80;;;;;;;32.89;49.13;99908.84;5041612;28;20034;-63
2023/06/19 09:08:16;;;;;;;4.75;3.08;;;;;;;32.98;47.71;99909.59;5026081;28;20070;-63
2023/06/19 09:10:42;;;;;;;5.28;2.85;;;;;;;33.20;49.67;99908.53;5027864;28;20393;-63
2023/06/19 09:13:08;;;;;;;4.85;2.78;;;;;;;33.24;47.65;99905.22;5042903;28;20025;-63
2023/06/19 09:15:37;;;;;;;5.60;2.72;;;;;;;33.20;47.52;99917.69;5050665;28;20048;-63
2023/06/19 09:18:03;;;;;;;5.03;3.13;;;;;;;33.12;46.73;99906.78;5050250;28;20104;-64
2023/06/19 09:20:29;;;;;;;6.07;3.35;;;;;;;33.09;47.48;99907.19;5049160;28;20108;-63
2023/06/19 09:22:55;;;;;;;6.57;2.92;;;;;;;33.26;48.24;99903.09;5049771;28;20048;-63
2023/06/19 09:25:21;;;;;;;5.80;3.25;;;;;;;33.26;48.11;99903.09;5043756;28;20489;-63
2023/06/19 09:27:47;;;;;;;10.23;3.85;;;;;;;32.97;47.77;99907.88;5033902;28;20104;-64
2023/06/19 09:30:15;;;;;;;5.30;3.33;;;;;;;32.85;47.40;99904.75;5050264;28;20024;-63
2023/06/19 09:32:41;;;;;;;6.10;3.22;;;;;;;32.86;46.71;99892.69;5050151;28;20066;-64
2023/06/19 09:35:06;;;;;;;22.77;4.45;;;;;;;32.47;46.85;99905.13;5033141;28;20029;-63
2023/06/19 09:37:32;;;;;;;5.78;3.17;;;;;;;32.27;47.85;99893.84;5042923;28;20029;-63
2023/06/19 09:39:59;;;;;;;4.43;3.00;;;;;;;32.06;49.27;99897.34;5049638;28;20704;-63
2023/06/19 09:42:33;;;;;;;4.63;3.15;;;;;;;32.04;48.21;99890.34;5048322;28;20056;-63
2023/06/19 09:45:07;;;;;;;5.43;3.28;;;;;;;31.92;49.77;99889.09;5049821;28;20071;-64
2023/06/19 09:47:38;;;;;;;4.85;3.00;;;;;;;32.16;50.37;99885.19;5049749;28;20029;-64
2023/06/19 09:50:06;;;;;;;5.53;3.38;;;;;;;32.57;47.47;99884.50;5030642;28;20374;-64
2023/06/19 09:52:32;;;;;;;5.78;3.15;;;;;;;32.85;46.74;99884.63;5048428;28;20040;-63
2023/06/19 09:55:02;;;;;;;6.65;3.75;;;;;;;33.45;47.61;99889.72;5049123;28;20029;-63
2023/06/19 09:57:28;;;;;;;5.65;3.30;;;;;;;33.65;44.29;99885.22;5048011;28;20040;-63
2023/06/19 09:59:59;;;;;;;5.15;3.30;;;;;;;34.00;46.27;99873.19;5048834;28;20125;-63
2023/06/19 10:02:27;;;;;;;4.75;3.55;;;;;;;34.31;44.78;99881.84;5048906;28;20041;-64
2023/06/19 10:04:57;;;;;;;5.55;3.40;;;;;;;34.33;43.81;99879.75;5033571;28;20041;-63
2023/06/19 10:07:24;;;;;;;5.18;3.17;;;;;;;34.53;43.15;99887.06;5027758;28;20116;-63
2023/06/19 10:10:08;;;;;;;5.55;3.17;;;;;;;34.36;42.65;99876.56;5030014;28;20037;-64
2023/06/19 10:12:38;;;;;;;6.35;3.78;;;;;;;34.27;43.29;99875.88;5028914;28;20075;-63
2023/06/19 10:15:17;;;;;;;6.45;3.13;;;;;;;34.05;44.20;99882.56;5027024;28;20551;-63
2023/06/19 10:18:00;;;;;;;4.55;2.85;;;;;;;34.12;41.81;99882.63;5027982;28;20103;-64
2023/06/19 10:20:35;;;;;;;4.95;3.05;;;;;;;34.21;44.21;99878.59;5015986;28;20729;-64
2023/06/19 10:23:05;;;;;;;5.90;3.63;;;;;;;34.01;44.61;99883.16;5026354;28;20117;-64
2023/06/19 10:25:33;;;;;;;9.43;3.40;;;;;;;33.83;44.94;99872.63;5024215;28;20450;-63
2023/06/19 10:27:59;;;;;;;6.95;3.30;;;;;;;34.05;46.04;99867.91;5012753;28;20119;-63
2023/06/19 10:30:25;;;;;;;5.30;3.20;;;;;;;34.34;44.47;99870.38;5013951;28;20515;-63
2023/06/19 10:32:51;;;;;;;7.07;3.45;;;;;;;34.57;42.78;99870.94;5029039;28;20037;-64
2023/06/19 10:35:17;;;;;;;5.55;3.35;;;;;;;34.78;44.43;99862.50;5027844;28;20116;-64
2023/06/19 10:37:44;;;;;;;6.60;3.42;;;;;;;34.72;44.13;99868.00;5028253;28;20040;-64
2023/06/19 10:40:10;;;;;;;6.45;3.38;;;;;;;34.59;45.90;99868.81;5028943;28;20037;-64
2023/06/19 10:42:40;;;;;;;6.68;3.30;;;;;;;34.22;43.18;99866.50;5009926;28;20099;-64
2023/06/19 10:45:11;;;;;;;5.63;3.30;;;;;;;33.97;45.67;99859.78;5018294;28;20029;-64
2023/06/19 10:47:40;;;;;;;4.93;3.20;;;;;;;33.82;46.00;99870.06;5009693;28;20038;-65
2023/06/19 10:50:11;;;;;;;4.32;3.13;;;;;;;33.68;46.63;99851.69;5009867;28;20529;-64
2023/06/19 10:52:38;;;;;;;5.03;3.00;;;;;;;33.48;46.14;99845.19;5018889;28;20025;-64
2023/06/19 10:55:05;;;;;;;4.50;2.40;;;;;;;33.74;46.33;99848.16;5029302;28;20574;-64
2023/06/19 10:57:30;;;;;;;4.25;2.80;;;;;;;33.69;46.60;99845.13;5029296;28;20112;-64
2023/06/19 10:59:58;;;;;;;5.97;3.40;;;;;;;33.53;46.71;99842.66;5024460;28;20389;-64
2023/06/19 11:02:24;;;;;;;5.60;3.05;;;;;;;33.25;46.61;99834.34;5033196;28;20041;-64
2023/06/19 11:04:52;;;;;;;4.88;3.00;;;;;;;33.13;47.66;99836.78;5043549;28;20036;-64
2023/06/19 11:07:18;;;;;;;7.50;3.55;;;;;;;33.03;46.95;99821.66;5047702;28;20079;-64
2023/06/19 11:09:43;;;;;;;5.15;3.10;;;;;;;33.64;48.20;99825.56;5046634;28;20048;-64
2023/06/19 11:12:09;;;;;;;6.38;3.22;;;;;;;34.35;44.16;99827.91;5012020;28;20109;-64
2023/06/19 11:14:39;;;;;;;6.30;3.42;;;;;;;35.29;43.09;99824.13;5043013;28;20033;-64
2023/06/19 11:17:08;;;;;;;5.10;3.25;;;;;;;35.33;40.44;99822.59;5029548;28;20080;-64
2023/06/19 11:19:33;;;;;;;5.03;2.70;;;;;;;35.37;40.19;99829.44;5042988;28;20028;-64
2023/06/19 11:22:02;;;;;;;4.88;2.90;;;;;;;35.65;41.09;99828.13;5035623;28;20426;-63
2023/06/19 11:24:28;;;;;;;6.10;2.90;;;;;;;35.53;40.00;99824.34;5046629;28;20556;-64
2023/06/19 11:26:58;;;;;;;3.47;2.45;;;;;;;35.96;40.37;99819.19;5030871;28;20021;-64
2023/06/19 11:29:30;;;;;;;6.05;3.00;;;;;;;36.41;39.56;99820.09;5028860;28;20120;-65